AHM weather

Ashland Municipal Sumner Parker Field
Ashland, Oregon, United States

Public forecast

Using degrees Fahrenheit for public forecast. Weather courtesy of forecast.io.

METAR (pilot weather report)

Closest report is Rogue Valley International Medford Airport, 14.5 nm (26.9 km) NW. Retrieved 2019/08/22 09:19 UTC (0 seconds ago):

KMFR 220919Z AUTO 00000KT 10SM OVC015 17/15 A3002 RMK AO2 T01670150

TAF (pilot weather forecast)

Closest forecast is Rogue Valley International Medford Airport, 14.5 nm (26.9 km) NW. Retrieved 2019/08/22 06:36 UTC (3 hours ago):

TAF KMFR 220532Z 2206/2306 VRB02KT P6SM SCT010 OVC040 FM221300 VRB02KT 5SM BR OVC010 FM221600 32005KT P6SM FEW015 FM222300 34009KT P6SM SKC FM230400 VRB02KT P6SM SKC